sensor_id;sensor_type;location;lat;lon;timestamp;P1;durP1;ratioP1;P2;durP2;ratioP2
6255;SDS011;3161;48.794;9.784;2023-02-28T00:01:25;3.00;;;2.40;;
6255;SDS011;3161;48.794;9.784;2023-02-28T00:03:53;3.47;;;1.87;;
6255;SDS011;3161;48.794;9.784;2023-02-28T00:06:21;1.83;;;1.73;;
6255;SDS011;3161;48.794;9.784;2023-02-28T00:08:50;2.53;;;1.77;;
6255;SDS011;3161;48.794;9.784;2023-02-28T00:11:17;6.43;;;2.80;;
6255;SDS011;3161;48.794;9.784;2023-02-28T00:13:46;4.13;;;2.37;;
6255;SDS011;3161;48.794;9.784;2023-02-28T00:16:18;2.60;;;1.80;;
6255;SDS011;3161;48.794;9.784;2023-02-28T00:18:47;5.90;;;1.90;;
6255;SDS011;3161;48.794;9.784;2023-02-28T00:21:16;3.03;;;1.90;;
6255;SDS011;3161;48.794;9.784;2023-02-28T00:23:45;2.93;;;2.00;;
6255;SDS011;3161;48.794;9.784;2023-02-28T00:26:13;3.33;;;2.23;;
6255;SDS011;3161;48.794;9.784;2023-02-28T00:28:40;2.90;;;2.30;;
6255;SDS011;3161;48.794;9.784;2023-02-28T00:31:08;1.87;;;1.67;;
6255;SDS011;3161;48.794;9.784;2023-02-28T00:33:35;3.60;;;2.10;;
6255;SDS011;3161;48.794;9.784;2023-02-28T00:36:07;3.90;;;1.90;;
6255;SDS011;3161;48.794;9.784;2023-02-28T00:38:36;3.80;;;1.97;;
6255;SDS011;3161;48.794;9.784;2023-02-28T00:41:05;3.00;;;2.07;;
6255;SDS011;3161;48.794;9.784;2023-02-28T00:43:36;4.33;;;1.73;;
6255;SDS011;3161;48.794;9.784;2023-02-28T00:46:04;2.70;;;2.00;;
6255;SDS011;3161;48.794;9.784;2023-02-28T00:48:33;2.77;;;2.03;;
6255;SDS011;3161;48.794;9.784;2023-02-28T00:51:00;3.60;;;2.27;;
6255;SDS011;3161;48.794;9.784;2023-02-28T00:53:28;1.93;;;1.83;;
6255;SDS011;3161;48.794;9.784;2023-02-28T00:55:58;4.40;;;2.27;;
6255;SDS011;3161;48.794;9.784;2023-02-28T00:58:26;3.33;;;2.17;;
6255;SDS011;3161;48.794;9.784;2023-02-28T01:00:54;3.60;;;2.10;;
6255;SDS011;3161;48.794;9.784;2023-02-28T01:03:22;3.17;;;2.10;;
6255;SDS011;3161;48.794;9.784;2023-02-28T01:05:49;2.90;;;2.30;;
6255;SDS011;3161;48.794;9.784;2023-02-28T01:08:18;5.23;;;2.00;;
6255;SDS011;3161;48.794;9.784;2023-02-28T01:10:46;3.73;;;2.37;;
6255;SDS011;3161;48.794;9.784;2023-02-28T01:13:14;4.70;;;2.30;;
6255;SDS011;3161;48.794;9.784;2023-02-28T01:15:53;2.97;;;2.27;;
6255;SDS011;3161;48.794;9.784;2023-02-28T01:18:18;5.70;;;2.30;;
6255;SDS011;3161;48.794;9.784;2023-02-28T01:20:46;2.93;;;2.17;;
6255;SDS011;3161;48.794;9.784;2023-02-28T01:23:14;3.60;;;2.40;;
6255;SDS011;3161;48.794;9.784;2023-02-28T01:25:41;3.87;;;2.07;;
6255;SDS011;3161;48.794;9.784;2023-02-28T01:28:09;3.57;;;2.40;;
6255;SDS011;3161;48.794;9.784;2023-02-28T01:30:37;4.83;;;2.40;;
6255;SDS011;3161;48.794;9.784;2023-02-28T01:33:04;2.40;;;2.07;;
6255;SDS011;3161;48.794;9.784;2023-02-28T01:35:32;3.80;;;2.57;;
6255;SDS011;3161;48.794;9.784;2023-02-28T01:38:02;5.87;;;2.50;;
6255;SDS011;3161;48.794;9.784;2023-02-28T01:40:29;6.13;;;2.37;;
6255;SDS011;3161;48.794;9.784;2023-02-28T01:42:57;4.70;;;3.03;;
6255;SDS011;3161;48.794;9.784;2023-02-28T01:45:28;4.27;;;2.63;;
6255;SDS011;3161;48.794;9.784;2023-02-28T01:48:01;4.00;;;2.23;;
6255;SDS011;3161;48.794;9.784;2023-02-28T01:50:31;5.50;;;2.33;;
6255;SDS011;3161;48.794;9.784;2023-02-28T01:53:01;3.33;;;2.30;;
6255;SDS011;3161;48.794;9.784;2023-02-28T01:55:31;3.33;;;2.30;;
6255;SDS011;3161;48.794;9.784;2023-02-28T01:58:00;6.07;;;2.60;;
6255;SDS011;3161;48.794;9.784;2023-02-28T02:00:29;3.77;;;2.80;;
6255;SDS011;3161;48.794;9.784;2023-02-28T02:02:58;3.73;;;2.13;;
6255;SDS011;3161;48.794;9.784;2023-02-28T02:05:29;3.30;;;2.43;;
6255;SDS011;3161;48.794;9.784;2023-02-28T02:08:00;4.27;;;2.73;;
6255;SDS011;3161;48.794;9.784;2023-02-28T02:10:35;2.60;;;2.37;;
6255;SDS011;3161;48.794;9.784;2023-02-28T02:13:14;3.17;;;2.80;;
6255;SDS011;3161;48.794;9.784;2023-02-28T02:29:57;3.63;;;2.73;;
6255;SDS011;3161;48.794;9.784;2023-02-28T02:35:20;3.27;;;2.20;;
6255;SDS011;3161;48.794;9.784;2023-02-28T02:37:58;3.97;;;2.70;;
6255;SDS011;3161;48.794;9.784;2023-02-28T02:40:35;5.67;;;2.60;;
6255;SDS011;3161;48.794;9.784;2023-02-28T02:43:16;4.03;;;2.73;;
6255;SDS011;3161;48.794;9.784;2023-02-28T02:45:52;6.23;;;2.87;;
6255;SDS011;3161;48.794;9.784;2023-02-28T02:48:21;4.13;;;2.83;;
6255;SDS011;3161;48.794;9.784;2023-02-28T02:50:55;5.90;;;2.93;;
6255;SDS011;3161;48.794;9.784;2023-02-28T02:53:32;8.57;;;2.40;;
6255;SDS011;3161;48.794;9.784;2023-02-28T02:56:01;4.77;;;2.83;;
6255;SDS011;3161;48.794;9.784;2023-02-28T02:58:33;5.23;;;2.97;;
6255;SDS011;3161;48.794;9.784;2023-02-28T03:01:04;4.80;;;2.57;;
6255;SDS011;3161;48.794;9.784;2023-02-28T03:03:32;5.20;;;2.60;;
6255;SDS011;3161;48.794;9.784;2023-02-28T03:06:00;4.33;;;2.40;;
6255;SDS011;3161;48.794;9.784;2023-02-28T03:08:33;6.27;;;3.20;;
6255;SDS011;3161;48.794;9.784;2023-02-28T03:11:11;3.33;;;3.00;;
6255;SDS011;3161;48.794;9.784;2023-02-28T03:16:34;3.73;;;2.60;;
6255;SDS011;3161;48.794;9.784;2023-02-28T03:24:54;3.83;;;2.80;;
6255;SDS011;3161;48.794;9.784;2023-02-28T03:27:36;3.43;;;2.93;;
6255;SDS011;3161;48.794;9.784;2023-02-28T03:30:22;4.43;;;3.33;;
6255;SDS011;3161;48.794;9.784;2023-02-28T03:32:56;5.07;;;3.00;;
6255;SDS011;3161;48.794;9.784;2023-02-28T03:35:27;7.40;;;2.83;;
6255;SDS011;3161;48.794;9.784;2023-02-28T03:38:13;5.90;;;2.93;;
6255;SDS011;3161;48.794;9.784;2023-02-28T03:41:00;4.73;;;2.80;;
6255;SDS011;3161;48.794;9.784;2023-02-28T03:43:20;5.00;;;3.40;;
6255;SDS011;3161;48.794;9.784;2023-02-28T03:45:48;6.67;;;3.80;;
6255;SDS011;3161;48.794;9.784;2023-02-28T03:50:54;5.53;;;3.33;;
6255;SDS011;3161;48.794;9.784;2023-02-28T03:55:59;3.87;;;3.47;;
6255;SDS011;3161;48.794;9.784;2023-02-28T03:58:38;6.60;;;3.53;;
6255;SDS011;3161;48.794;9.784;2023-02-28T04:01:09;6.67;;;3.63;;
6255;SDS011;3161;48.794;9.784;2023-02-28T04:03:38;9.23;;;4.30;;
6255;SDS011;3161;48.794;9.784;2023-02-28T04:06:07;5.47;;;3.90;;
6255;SDS011;3161;48.794;9.784;2023-02-28T04:08:36;8.77;;;4.37;;
6255;SDS011;3161;48.794;9.784;2023-02-28T04:11:06;7.33;;;4.57;;
6255;SDS011;3161;48.794;9.784;2023-02-28T04:13:35;13.13;;;7.20;;
6255;SDS011;3161;48.794;9.784;2023-02-28T04:16:06;6.77;;;4.47;;
6255;SDS011;3161;48.794;9.784;2023-02-28T04:18:40;10.27;;;5.17;;
6255;SDS011;3161;48.794;9.784;2023-02-28T04:21:10;14.60;;;5.80;;
6255;SDS011;3161;48.794;9.784;2023-02-28T04:23:38;10.90;;;5.20;;
6255;SDS011;3161;48.794;9.784;2023-02-28T04:26:06;11.67;;;5.40;;
6255;SDS011;3161;48.794;9.784;2023-02-28T04:28:34;6.60;;;3.87;;
6255;SDS011;3161;48.794;9.784;2023-02-28T04:31:04;12.03;;;4.50;;
6255;SDS011;3161;48.794;9.784;2023-02-28T04:33:32;10.97;;;4.40;;
6255;SDS011;3161;48.794;9.784;2023-02-28T04:36:03;7.37;;;4.37;;
6255;SDS011;3161;48.794;9.784;2023-02-28T04:38:33;4.87;;;3.50;;
6255;SDS011;3161;48.794;9.784;2023-02-28T04:41:02;6.10;;;3.97;;
6255;SDS011;3161;48.794;9.784;2023-02-28T04:43:31;9.17;;;4.30;;
6255;SDS011;3161;48.794;9.784;2023-02-28T04:46:00;6.50;;;4.03;;
6255;SDS011;3161;48.794;9.784;2023-02-28T04:48:31;6.10;;;3.63;;
6255;SDS011;3161;48.794;9.784;2023-02-28T04:51:04;7.60;;;3.90;;
6255;SDS011;3161;48.794;9.784;2023-02-28T04:53:39;7.17;;;4.27;;
6255;SDS011;3161;48.794;9.784;2023-02-28T04:56:09;8.43;;;4.07;;
6255;SDS011;3161;48.794;9.784;2023-02-28T04:58:38;9.77;;;4.03;;
6255;SDS011;3161;48.794;9.784;2023-02-28T05:01:20;7.40;;;4.27;;
6255;SDS011;3161;48.794;9.784;2023-02-28T05:03:52;8.77;;;4.50;;
6255;SDS011;3161;48.794;9.784;2023-02-28T05:06:21;9.50;;;5.00;;
6255;SDS011;3161;48.794;9.784;2023-02-28T05:08:51;8.13;;;4.47;;
6255;SDS011;3161;48.794;9.784;2023-02-28T05:11:20;6.80;;;4.03;;
6255;SDS011;3161;48.794;9.784;2023-02-28T05:13:50;9.07;;;3.90;;
6255;SDS011;3161;48.794;9.784;2023-02-28T05:16:19;5.43;;;3.50;;
6255;SDS011;3161;48.794;9.784;2023-02-28T05:18:47;8.00;;;4.70;;
6255;SDS011;3161;48.794;9.784;2023-02-28T05:21:22;9.17;;;4.70;;
6255;SDS011;3161;48.794;9.784;2023-02-28T05:23:55;7.83;;;4.00;;
6255;SDS011;3161;48.794;9.784;2023-02-28T05:26:25;6.13;;;4.33;;
6255;SDS011;3161;48.794;9.784;2023-02-28T05:28:53;5.70;;;4.50;;
6255;SDS011;3161;48.794;9.784;2023-02-28T05:31:21;5.47;;;4.13;;
6255;SDS011;3161;48.794;9.784;2023-02-28T05:33:49;4.07;;;3.40;;
6255;SDS011;3161;48.794;9.784;2023-02-28T05:36:17;6.33;;;4.13;;
6255;SDS011;3161;48.794;9.784;2023-02-28T05:38:48;7.10;;;4.07;;
6255;SDS011;3161;48.794;9.784;2023-02-28T05:41:17;5.37;;;4.50;;
6255;SDS011;3161;48.794;9.784;2023-02-28T05:43:45;9.50;;;4.43;;
6255;SDS011;3161;48.794;9.784;2023-02-28T05:46:14;9.17;;;3.97;;
6255;SDS011;3161;48.794;9.784;2023-02-28T05:48:42;4.90;;;3.50;;
6255;SDS011;3161;48.794;9.784;2023-02-28T05:51:13;8.40;;;5.03;;
6255;SDS011;3161;48.794;9.784;2023-02-28T05:53:41;5.67;;;3.93;;
6255;SDS011;3161;48.794;9.784;2023-02-28T05:56:08;8.37;;;4.40;;
6255;SDS011;3161;48.794;9.784;2023-02-28T05:58:36;5.83;;;4.20;;
6255;SDS011;3161;48.794;9.784;2023-02-28T06:01:23;6.63;;;4.00;;
6255;SDS011;3161;48.794;9.784;2023-02-28T06:03:59;10.33;;;4.33;;
6255;SDS011;3161;48.794;9.784;2023-02-28T06:06:28;5.90;;;4.70;;
6255;SDS011;3161;48.794;9.784;2023-02-28T06:08:56;6.63;;;4.70;;
6255;SDS011;3161;48.794;9.784;2023-02-28T06:11:24;4.93;;;3.67;;
6255;SDS011;3161;48.794;9.784;2023-02-28T06:13:53;6.80;;;4.83;;
6255;SDS011;3161;48.794;9.784;2023-02-28T06:16:22;5.77;;;4.60;;
6255;SDS011;3161;48.794;9.784;2023-02-28T06:18:50;7.50;;;4.70;;
6255;SDS011;3161;48.794;9.784;2023-02-28T06:21:21;7.33;;;4.33;;
6255;SDS011;3161;48.794;9.784;2023-02-28T06:23:50;5.20;;;3.93;;
6255;SDS011;3161;48.794;9.784;2023-02-28T06:26:17;12.67;;;5.13;;
6255;SDS011;3161;48.794;9.784;2023-02-28T06:28:45;16.87;;;5.50;;
6255;SDS011;3161;48.794;9.784;2023-02-28T06:31:14;7.10;;;4.60;;
6255;SDS011;3161;48.794;9.784;2023-02-28T06:33:43;7.43;;;4.90;;
6255;SDS011;3161;48.794;9.784;2023-02-28T06:36:11;5.97;;;4.77;;
6255;SDS011;3161;48.794;9.784;2023-02-28T06:38:40;10.83;;;5.10;;
6255;SDS011;3161;48.794;9.784;2023-02-28T06:41:08;6.37;;;4.63;;
6255;SDS011;3161;48.794;9.784;2023-02-28T06:43:37;14.40;;;6.13;;
6255;SDS011;3161;48.794;9.784;2023-02-28T06:46:08;7.70;;;4.93;;
6255;SDS011;3161;48.794;9.784;2023-02-28T06:48:37;8.83;;;5.00;;
6255;SDS011;3161;48.794;9.784;2023-02-28T06:51:10;11.00;;;5.83;;
6255;SDS011;3161;48.794;9.784;2023-02-28T06:53:35;8.60;;;6.03;;
6255;SDS011;3161;48.794;9.784;2023-02-28T06:56:07;10.00;;;5.37;;
6255;SDS011;3161;48.794;9.784;2023-02-28T06:58:37;10.13;;;5.27;;
6255;SDS011;3161;48.794;9.784;2023-02-28T07:01:05;9.27;;;5.77;;
6255;SDS011;3161;48.794;9.784;2023-02-28T07:03:34;13.73;;;7.27;;
6255;SDS011;3161;48.794;9.784;2023-02-28T07:06:04;21.13;;;7.13;;
6255;SDS011;3161;48.794;9.784;2023-02-28T07:08:33;25.93;;;9.20;;
6255;SDS011;3161;48.794;9.784;2023-02-28T07:11:02;22.53;;;8.57;;
6255;SDS011;3161;48.794;9.784;2023-02-28T07:13:30;8.97;;;5.20;;
6255;SDS011;3161;48.794;9.784;2023-02-28T07:16:03;14.90;;;5.93;;
6255;SDS011;3161;48.794;9.784;2023-02-28T07:18:28;17.17;;;7.00;;
6255;SDS011;3161;48.794;9.784;2023-02-28T07:20:56;6.50;;;4.97;;
6255;SDS011;3161;48.794;9.784;2023-02-28T07:23:23;7.93;;;5.63;;
6255;SDS011;3161;48.794;9.784;2023-02-28T07:25:51;10.17;;;5.90;;
6255;SDS011;3161;48.794;9.784;2023-02-28T07:28:19;9.53;;;5.57;;
6255;SDS011;3161;48.794;9.784;2023-02-28T07:30:46;8.03;;;5.17;;
6255;SDS011;3161;48.794;9.784;2023-02-28T07:33:14;6.33;;;4.77;;
6255;SDS011;3161;48.794;9.784;2023-02-28T07:35:42;7.00;;;5.40;;
6255;SDS011;3161;48.794;9.784;2023-02-28T07:38:10;7.80;;;5.33;;
6255;SDS011;3161;48.794;9.784;2023-02-28T07:40:39;14.83;;;6.20;;
6255;SDS011;3161;48.794;9.784;2023-02-28T07:43:06;12.57;;;5.30;;
6255;SDS011;3161;48.794;9.784;2023-02-28T07:45:34;6.53;;;5.13;;
6255;SDS011;3161;48.794;9.784;2023-02-28T07:48:02;7.97;;;5.43;;
6255;SDS011;3161;48.794;9.784;2023-02-28T07:50:30;8.93;;;5.80;;
6255;SDS011;3161;48.794;9.784;2023-02-28T07:52:58;8.60;;;5.33;;
6255;SDS011;3161;48.794;9.784;2023-02-28T07:55:26;8.87;;;5.23;;
6255;SDS011;3161;48.794;9.784;2023-02-28T07:57:53;8.13;;;5.30;;
6255;SDS011;3161;48.794;9.784;2023-02-28T08:00:21;7.00;;;5.53;;
6255;SDS011;3161;48.794;9.784;2023-02-28T08:02:49;7.30;;;5.50;;
6255;SDS011;3161;48.794;9.784;2023-02-28T08:05:17;8.53;;;5.47;;
6255;SDS011;3161;48.794;9.784;2023-02-28T08:07:45;7.40;;;5.23;;
6255;SDS011;3161;48.794;9.784;2023-02-28T08:10:13;9.10;;;6.10;;
6255;SDS011;3161;48.794;9.784;2023-02-28T08:12:40;8.07;;;5.50;;
6255;SDS011;3161;48.794;9.784;2023-02-28T08:15:08;8.80;;;6.07;;
6255;SDS011;3161;48.794;9.784;2023-02-28T08:17:36;8.57;;;5.90;;
6255;SDS011;3161;48.794;9.784;2023-02-28T08:20:04;7.00;;;5.33;;
6255;SDS011;3161;48.794;9.784;2023-02-28T08:22:33;7.30;;;5.00;;
6255;SDS011;3161;48.794;9.784;2023-02-28T08:25:00;8.37;;;5.57;;
6255;SDS011;3161;48.794;9.784;2023-02-28T08:27:28;10.80;;;5.53;;
6255;SDS011;3161;48.794;9.784;2023-02-28T08:29:55;9.77;;;5.80;;
6255;SDS011;3161;48.794;9.784;2023-02-28T08:32:23;10.47;;;6.20;;
6255;SDS011;3161;48.794;9.784;2023-02-28T08:34:51;7.77;;;5.87;;
6255;SDS011;3161;48.794;9.784;2023-02-28T08:37:18;10.60;;;5.27;;
6255;SDS011;3161;48.794;9.784;2023-02-28T08:39:46;9.50;;;5.33;;
6255;SDS011;3161;48.794;9.784;2023-02-28T08:42:13;7.40;;;5.33;;
6255;SDS011;3161;48.794;9.784;2023-02-28T08:44:41;8.63;;;6.27;;
6255;SDS011;3161;48.794;9.784;2023-02-28T08:47:09;12.00;;;6.40;;
6255;SDS011;3161;48.794;9.784;2023-02-28T08:49:36;8.57;;;5.67;;
6255;SDS011;3161;48.794;9.784;2023-02-28T08:52:04;19.63;;;7.57;;
6255;SDS011;3161;48.794;9.784;2023-02-28T08:54:32;12.13;;;6.33;;
6255;SDS011;3161;48.794;9.784;2023-02-28T08:57:00;17.03;;;7.67;;
6255;SDS011;3161;48.794;9.784;2023-02-28T08:59:28;12.27;;;7.03;;
6255;SDS011;3161;48.794;9.784;2023-02-28T09:01:56;14.57;;;7.03;;
6255;SDS011;3161;48.794;9.784;2023-02-28T09:04:23;14.00;;;6.80;;
6255;SDS011;3161;48.794;9.784;2023-02-28T09:06:51;14.37;;;6.87;;
6255;SDS011;3161;48.794;9.784;2023-02-28T09:09:19;11.93;;;6.40;;
6255;SDS011;3161;48.794;9.784;2023-02-28T09:11:46;9.87;;;6.83;;
6255;SDS011;3161;48.794;9.784;2023-02-28T09:14:14;7.27;;;5.17;;
6255;SDS011;3161;48.794;9.784;2023-02-28T09:16:43;9.97;;;5.50;;
6255;SDS011;3161;48.794;9.784;2023-02-28T09:19:11;9.93;;;6.07;;
6255;SDS011;3161;48.794;9.784;2023-02-28T09:21:39;9.43;;;5.67;;
6255;SDS011;3161;48.794;9.784;2023-02-28T09:24:07;7.77;;;5.77;;
6255;SDS011;3161;48.794;9.784;2023-02-28T09:26:36;7.70;;;5.77;;
6255;SDS011;3161;48.794;9.784;2023-02-28T09:29:04;8.67;;;6.03;;
6255;SDS011;3161;48.794;9.784;2023-02-28T09:31:32;7.07;;;5.90;;
6255;SDS011;3161;48.794;9.784;2023-02-28T09:34:00;8.53;;;5.07;;
6255;SDS011;3161;48.794;9.784;2023-02-28T09:36:27;12.90;;;5.60;;
6255;SDS011;3161;48.794;9.784;2023-02-28T09:38:55;8.83;;;6.10;;
6255;SDS011;3161;48.794;9.784;2023-02-28T09:41:24;7.83;;;5.27;;
6255;SDS011;3161;48.794;9.784;2023-02-28T09:43:59;11.13;;;6.10;;
6255;SDS011;3161;48.794;9.784;2023-02-28T09:49:07;10.67;;;5.57;;
6255;SDS011;3161;48.794;9.784;2023-02-28T09:51:57;11.17;;;5.57;;
6255;SDS011;3161;48.794;9.784;2023-02-28T09:54:27;9.60;;;5.50;;
6255;SDS011;3161;48.794;9.784;2023-02-28T10:05:20;8.47;;;5.63;;
6255;SDS011;3161;48.794;9.784;2023-02-28T10:08:03;6.50;;;5.27;;
6255;SDS011;3161;48.794;9.784;2023-02-28T10:10:38;8.93;;;5.37;;
6255;SDS011;3161;48.794;9.784;2023-02-28T10:15:40;6.47;;;5.03;;
6255;SDS011;3161;48.794;9.784;2023-02-28T10:18:10;9.10;;;5.60;;
6255;SDS011;3161;48.794;9.784;2023-02-28T10:23:31;8.50;;;5.27;;
6255;SDS011;3161;48.794;9.784;2023-02-28T10:26:01;13.67;;;6.87;;
6255;SDS011;3161;48.794;9.784;2023-02-28T10:28:33;11.20;;;6.30;;
6255;SDS011;3161;48.794;9.784;2023-02-28T10:31:01;11.63;;;6.33;;
6255;SDS011;3161;48.794;9.784;2023-02-28T10:33:31;9.13;;;5.87;;
6255;SDS011;3161;48.794;9.784;2023-02-28T10:36:01;7.07;;;4.93;;
6255;SDS011;3161;48.794;9.784;2023-02-28T10:38:33;8.97;;;5.57;;
6255;SDS011;3161;48.794;9.784;2023-02-28T10:41:09;8.37;;;5.17;;
6255;SDS011;3161;48.794;9.784;2023-02-28T10:43:40;8.13;;;5.53;;
6255;SDS011;3161;48.794;9.784;2023-02-28T10:48:49;5.67;;;4.33;;
6255;SDS011;3161;48.794;9.784;2023-02-28T10:51:18;8.67;;;5.37;;
6255;SDS011;3161;48.794;9.784;2023-02-28T10:53:47;15.07;;;6.17;;
6255;SDS011;3161;48.794;9.784;2023-02-28T10:56:24;7.67;;;5.43;;
6255;SDS011;3161;48.794;9.784;2023-02-28T11:01:24;10.10;;;5.93;;
6255;SDS011;3161;48.794;9.784;2023-02-28T11:04:00;8.23;;;5.53;;
6255;SDS011;3161;48.794;9.784;2023-02-28T11:06:32;8.30;;;5.73;;
6255;SDS011;3161;48.794;9.784;2023-02-28T11:09:02;8.03;;;5.20;;
6255;SDS011;3161;48.794;9.784;2023-02-28T11:11:43;8.83;;;5.70;;
6255;SDS011;3161;48.794;9.784;2023-02-28T11:14:18;9.60;;;5.97;;
6255;SDS011;3161;48.794;9.784;2023-02-28T11:16:53;8.43;;;6.23;;
6255;SDS011;3161;48.794;9.784;2023-02-28T11:19:34;8.40;;;5.97;;
6255;SDS011;3161;48.794;9.784;2023-02-28T11:22:01;7.93;;;5.00;;
6255;SDS011;3161;48.794;9.784;2023-02-28T11:24:31;7.90;;;5.50;;
6255;SDS011;3161;48.794;9.784;2023-02-28T11:27:03;6.50;;;5.27;;
6255;SDS011;3161;48.794;9.784;2023-02-28T11:29:32;7.53;;;5.43;;
6255;SDS011;3161;48.794;9.784;2023-02-28T11:32:04;6.97;;;5.47;;
6255;SDS011;3161;48.794;9.784;2023-02-28T11:34:36;8.90;;;5.37;;
6255;SDS011;3161;48.794;9.784;2023-02-28T11:37:05;7.67;;;5.30;;
6255;SDS011;3161;48.794;9.784;2023-02-28T11:39:41;10.57;;;5.60;;
6255;SDS011;3161;48.794;9.784;2023-02-28T11:45:01;7.77;;;5.03;;
6255;SDS011;3161;48.794;9.784;2023-02-28T11:47:49;7.60;;;5.20;;
6255;SDS011;3161;48.794;9.784;2023-02-28T11:52:56;5.83;;;4.43;;
6255;SDS011;3161;48.794;9.784;2023-02-28T12:00:56;8.83;;;5.53;;
6255;SDS011;3161;48.794;9.784;2023-02-28T12:06:38;9.33;;;5.27;;
6255;SDS011;3161;48.794;9.784;2023-02-28T12:11:54;7.20;;;5.30;;
6255;SDS011;3161;48.794;9.784;2023-02-28T12:17:32;9.00;;;5.67;;
6255;SDS011;3161;48.794;9.784;2023-02-28T12:20:14;7.23;;;5.30;;
6255;SDS011;3161;48.794;9.784;2023-02-28T12:28:04;7.00;;;4.67;;
6255;SDS011;3161;48.794;9.784;2023-02-28T12:30:35;9.03;;;4.87;;
6255;SDS011;3161;48.794;9.784;2023-02-28T12:33:06;7.30;;;4.63;;
6255;SDS011;3161;48.794;9.784;2023-02-28T12:35:37;5.40;;;4.13;;
6255;SDS011;3161;48.794;9.784;2023-02-28T12:38:22;6.60;;;5.20;;
6255;SDS011;3161;48.794;9.784;2023-02-28T12:41:02;7.07;;;4.23;;
6255;SDS011;3161;48.794;9.784;2023-02-28T12:43:35;7.93;;;5.40;;
6255;SDS011;3161;48.794;9.784;2023-02-28T12:48:46;5.50;;;4.50;;
6255;SDS011;3161;48.794;9.784;2023-02-28T12:51:15;6.57;;;4.77;;
6255;SDS011;3161;48.794;9.784;2023-02-28T12:53:56;5.77;;;4.83;;
6255;SDS011;3161;48.794;9.784;2023-02-28T12:56:42;5.80;;;4.87;;
6255;SDS011;3161;48.794;9.784;2023-02-28T13:02:09;5.13;;;4.60;;
6255;SDS011;3161;48.794;9.784;2023-02-28T13:09:51;6.13;;;4.50;;
6255;SDS011;3161;48.794;9.784;2023-02-28T13:12:20;7.10;;;4.60;;
6255;SDS011;3161;48.794;9.784;2023-02-28T13:14:49;6.93;;;4.37;;
6255;SDS011;3161;48.794;9.784;2023-02-28T13:17:24;8.43;;;5.30;;
6255;SDS011;3161;48.794;9.784;2023-02-28T13:25:53;5.87;;;4.73;;
6255;SDS011;3161;48.794;9.784;2023-02-28T13:27:51;7.53;;;5.20;;
6255;SDS011;3161;48.794;9.784;2023-02-28T13:36:11;7.37;;;5.67;;
6255;SDS011;3161;48.794;9.784;2023-02-28T13:38:34;5.30;;;4.73;;
6255;SDS011;3161;48.794;9.784;2023-02-28T13:46:34;6.47;;;4.80;;
6255;SDS011;3161;48.794;9.784;2023-02-28T13:51:55;6.00;;;5.30;;
6255;SDS011;3161;48.794;9.784;2023-02-28T14:05:39;5.70;;;4.93;;
6255;SDS011;3161;48.794;9.784;2023-02-28T14:08:10;9.90;;;5.27;;
6255;SDS011;3161;48.794;9.784;2023-02-28T14:10:50;5.83;;;5.20;;
6255;SDS011;3161;48.794;9.784;2023-02-28T14:16:13;9.90;;;6.20;;
6255;SDS011;3161;48.794;9.784;2023-02-28T14:21:32;13.00;;;7.23;;
6255;SDS011;3161;48.794;9.784;2023-02-28T14:32:05;17.97;;;8.23;;
6255;SDS011;3161;48.794;9.784;2023-02-28T14:34:50;11.23;;;6.47;;
6255;SDS011;3161;48.794;9.784;2023-02-28T14:37:31;23.93;;;7.97;;
6255;SDS011;3161;48.794;9.784;2023-02-28T14:40:01;7.47;;;6.13;;
6255;SDS011;3161;48.794;9.784;2023-02-28T14:42:32;12.80;;;5.70;;
6255;SDS011;3161;48.794;9.784;2023-02-28T14:45:00;9.10;;;6.03;;
6255;SDS011;3161;48.794;9.784;2023-02-28T14:47:30;17.13;;;4.70;;
6255;SDS011;3161;48.794;9.784;2023-02-28T14:49:59;7.00;;;5.00;;
6255;SDS011;3161;48.794;9.784;2023-02-28T14:52:30;7.23;;;5.27;;
6255;SDS011;3161;48.794;9.784;2023-02-28T14:55:00;6.93;;;5.40;;
6255;SDS011;3161;48.794;9.784;2023-02-28T14:57:38;6.37;;;4.83;;
6255;SDS011;3161;48.794;9.784;2023-02-28T15:00:14;5.87;;;4.70;;
6255;SDS011;3161;48.794;9.784;2023-02-28T15:02:44;7.60;;;4.97;;
6255;SDS011;3161;48.794;9.784;2023-02-28T15:07:45;7.23;;;4.93;;
6255;SDS011;3161;48.794;9.784;2023-02-28T15:10:16;5.67;;;4.53;;
6255;SDS011;3161;48.794;9.784;2023-02-28T15:12:56;13.87;;;5.67;;
6255;SDS011;3161;48.794;9.784;2023-02-28T15:15:46;6.23;;;4.83;;
6255;SDS011;3161;48.794;9.784;2023-02-28T15:18:20;5.60;;;4.80;;
6255;SDS011;3161;48.794;9.784;2023-02-28T15:21:05;8.83;;;5.20;;
6255;SDS011;3161;48.794;9.784;2023-02-28T15:23:34;10.03;;;5.37;;
6255;SDS011;3161;48.794;9.784;2023-02-28T15:26:04;7.17;;;5.40;;
6255;SDS011;3161;48.794;9.784;2023-02-28T15:28:32;5.80;;;5.20;;
6255;SDS011;3161;48.794;9.784;2023-02-28T15:31:02;7.53;;;5.13;;
6255;SDS011;3161;48.794;9.784;2023-02-28T15:33:31;7.63;;;5.87;;
6255;SDS011;3161;48.794;9.784;2023-02-28T15:36:16;7.60;;;5.40;;
6255;SDS011;3161;48.794;9.784;2023-02-28T15:38:49;6.40;;;5.50;;
6255;SDS011;3161;48.794;9.784;2023-02-28T15:41:29;6.90;;;5.80;;
6255;SDS011;3161;48.794;9.784;2023-02-28T15:46:57;5.87;;;5.10;;
6255;SDS011;3161;48.794;9.784;2023-02-28T15:49:22;9.27;;;5.73;;
6255;SDS011;3161;48.794;9.784;2023-02-28T15:51:51;8.20;;;5.70;;
6255;SDS011;3161;48.794;9.784;2023-02-28T15:54:28;7.53;;;5.43;;
6255;SDS011;3161;48.794;9.784;2023-02-28T15:56:57;6.77;;;5.33;;
6255;SDS011;3161;48.794;9.784;2023-02-28T15:59:27;11.13;;;5.23;;
6255;SDS011;3161;48.794;9.784;2023-02-28T16:02:04;10.80;;;5.77;;
6255;SDS011;3161;48.794;9.784;2023-02-28T16:04:32;10.27;;;5.30;;
6255;SDS011;3161;48.794;9.784;2023-02-28T16:07:04;9.10;;;5.90;;
6255;SDS011;3161;48.794;9.784;2023-02-28T16:09:32;8.67;;;5.70;;
6255;SDS011;3161;48.794;9.784;2023-02-28T16:12:00;14.77;;;5.93;;
6255;SDS011;3161;48.794;9.784;2023-02-28T16:14:29;8.60;;;5.53;;
6255;SDS011;3161;48.794;9.784;2023-02-28T16:17:12;6.03;;;5.10;;
6255;SDS011;3161;48.794;9.784;2023-02-28T16:19:37;10.80;;;6.20;;
6255;SDS011;3161;48.794;9.784;2023-02-28T16:22:05;9.57;;;5.80;;
6255;SDS011;3161;48.794;9.784;2023-02-28T16:24:32;8.60;;;5.97;;
6255;SDS011;3161;48.794;9.784;2023-02-28T16:27:00;11.60;;;6.40;;
6255;SDS011;3161;48.794;9.784;2023-02-28T16:29:33;9.60;;;6.83;;
6255;SDS011;3161;48.794;9.784;2023-02-28T16:31:58;12.40;;;7.67;;
6255;SDS011;3161;48.794;9.784;2023-02-28T16:34:28;17.27;;;7.30;;
6255;SDS011;3161;48.794;9.784;2023-02-28T16:36:55;20.80;;;8.77;;
6255;SDS011;3161;48.794;9.784;2023-02-28T16:39:24;12.60;;;7.50;;
6255;SDS011;3161;48.794;9.784;2023-02-28T16:41:51;12.90;;;6.33;;
6255;SDS011;3161;48.794;9.784;2023-02-28T16:46:56;19.70;;;8.90;;
6255;SDS011;3161;48.794;9.784;2023-02-28T16:49:25;16.63;;;8.00;;
6255;SDS011;3161;48.794;9.784;2023-02-28T16:51:53;16.07;;;8.73;;
6255;SDS011;3161;48.794;9.784;2023-02-28T16:54:20;13.43;;;8.00;;
6255;SDS011;3161;48.794;9.784;2023-02-28T16:56:48;12.60;;;7.17;;
6255;SDS011;3161;48.794;9.784;2023-02-28T16:59:18;14.47;;;8.27;;
6255;SDS011;3161;48.794;9.784;2023-02-28T17:01:47;21.80;;;9.30;;
6255;SDS011;3161;48.794;9.784;2023-02-28T17:04:15;17.47;;;9.33;;
6255;SDS011;3161;48.794;9.784;2023-02-28T17:06:43;14.00;;;8.27;;
6255;SDS011;3161;48.794;9.784;2023-02-28T17:09:15;16.07;;;8.70;;
6255;SDS011;3161;48.794;9.784;2023-02-28T17:11:47;12.77;;;8.47;;
6255;SDS011;3161;48.794;9.784;2023-02-28T17:14:15;19.63;;;9.43;;
6255;SDS011;3161;48.794;9.784;2023-02-28T17:16:43;11.20;;;7.13;;
6255;SDS011;3161;48.794;9.784;2023-02-28T17:19:12;10.83;;;7.70;;
6255;SDS011;3161;48.794;9.784;2023-02-28T17:21:41;15.23;;;7.60;;
6255;SDS011;3161;48.794;9.784;2023-02-28T17:24:09;9.07;;;6.93;;
6255;SDS011;3161;48.794;9.784;2023-02-28T17:26:39;11.60;;;7.10;;
6255;SDS011;3161;48.794;9.784;2023-02-28T17:29:20;14.03;;;7.63;;
6255;SDS011;3161;48.794;9.784;2023-02-28T17:31:43;12.90;;;7.97;;
6255;SDS011;3161;48.794;9.784;2023-02-28T17:34:11;11.87;;;8.60;;
6255;SDS011;3161;48.794;9.784;2023-02-28T17:36:40;14.13;;;8.20;;
6255;SDS011;3161;48.794;9.784;2023-02-28T17:39:08;8.93;;;6.50;;
6255;SDS011;3161;48.794;9.784;2023-02-28T17:41:44;12.47;;;7.63;;
6255;SDS011;3161;48.794;9.784;2023-02-28T17:44:08;16.60;;;7.50;;
6255;SDS011;3161;48.794;9.784;2023-02-28T17:46:36;13.07;;;8.07;;
6255;SDS011;3161;48.794;9.784;2023-02-28T17:49:08;13.83;;;7.90;;
6255;SDS011;3161;48.794;9.784;2023-02-28T17:51:36;14.40;;;7.73;;
6255;SDS011;3161;48.794;9.784;2023-02-28T17:54:04;13.40;;;7.97;;